sensor_id;sensor_type;location;lat;lon;timestamp;P1;durP1;ratioP1;P2;durP2;ratioP2
62419;SDS011;48460;51.616;5.426;2023-05-17T00:00:26;10.60;;;3.78;;
62419;SDS011;48460;51.616;5.426;2023-05-17T00:02:55;16.58;;;4.15;;
62419;SDS011;48460;51.616;5.426;2023-05-17T00:05:28;16.80;;;4.30;;
62419;SDS011;48460;51.616;5.426;2023-05-17T00:08:19;16.67;;;4.10;;
62419;SDS011;48460;51.616;5.426;2023-05-17T00:11:04;12.02;;;3.47;;
62419;SDS011;48460;51.616;5.426;2023-05-17T00:13:35;16.38;;;3.75;;
62419;SDS011;48460;51.616;5.426;2023-05-17T00:16:09;16.27;;;3.72;;
62419;SDS011;48460;51.616;5.426;2023-05-17T00:18:37;13.68;;;3.65;;
62419;SDS011;48460;51.616;5.426;2023-05-17T00:21:18;15.60;;;4.25;;
62419;SDS011;48460;51.616;5.426;2023-05-17T00:23:46;18.10;;;3.90;;
62419;SDS011;48460;51.616;5.426;2023-05-17T00:26:14;17.23;;;4.18;;
62419;SDS011;48460;51.616;5.426;2023-05-17T00:28:50;16.30;;;3.80;;
62419;SDS011;48460;51.616;5.426;2023-05-17T00:31:16;19.73;;;3.90;;
62419;SDS011;48460;51.616;5.426;2023-05-17T00:33:47;16.95;;;4.10;;
62419;SDS011;48460;51.616;5.426;2023-05-17T00:36:15;18.55;;;4.38;;
62419;SDS011;48460;51.616;5.426;2023-05-17T00:38:41;21.25;;;4.22;;
62419;SDS011;48460;51.616;5.426;2023-05-17T00:41:18;9.43;;;3.58;;
62419;SDS011;48460;51.616;5.426;2023-05-17T00:43:55;18.02;;;4.50;;
62419;SDS011;48460;51.616;5.426;2023-05-17T00:46:26;15.82;;;4.38;;
62419;SDS011;48460;51.616;5.426;2023-05-17T00:49:13;12.73;;;4.05;;
62419;SDS011;48460;51.616;5.426;2023-05-17T00:51:47;20.50;;;4.60;;
62419;SDS011;48460;51.616;5.426;2023-05-17T00:54:23;14.27;;;4.20;;
62419;SDS011;48460;51.616;5.426;2023-05-17T00:57:00;15.85;;;4.35;;
62419;SDS011;48460;51.616;5.426;2023-05-17T00:59:45;17.92;;;4.50;;
62419;SDS011;48460;51.616;5.426;2023-05-17T01:02:18;16.48;;;4.55;;
62419;SDS011;48460;51.616;5.426;2023-05-17T01:04:50;15.25;;;4.50;;
62419;SDS011;48460;51.616;5.426;2023-05-17T01:07:16;10.77;;;4.25;;
62419;SDS011;48460;51.616;5.426;2023-05-17T01:09:44;18.23;;;4.90;;
62419;SDS011;48460;51.616;5.426;2023-05-17T01:12:25;17.95;;;4.72;;
62419;SDS011;48460;51.616;5.426;2023-05-17T01:15:13;15.95;;;4.55;;
62419;SDS011;48460;51.616;5.426;2023-05-17T01:18:30;15.00;;;4.57;;
62419;SDS011;48460;51.616;5.426;2023-05-17T01:21:03;14.85;;;4.80;;
62419;SDS011;48460;51.616;5.426;2023-05-17T01:24:02;23.42;;;5.20;;
62419;SDS011;48460;51.616;5.426;2023-05-17T01:27:10;19.55;;;4.95;;
62419;SDS011;48460;51.616;5.426;2023-05-17T01:33:09;14.90;;;4.47;;
62419;SDS011;48460;51.616;5.426;2023-05-17T01:35:38;16.27;;;4.95;;
62419;SDS011;48460;51.616;5.426;2023-05-17T01:38:04;15.65;;;4.70;;
62419;SDS011;48460;51.616;5.426;2023-05-17T01:40:38;18.63;;;4.90;;
62419;SDS011;48460;51.616;5.426;2023-05-17T01:43:20;19.75;;;5.68;;
62419;SDS011;48460;51.616;5.426;2023-05-17T01:46:04;16.50;;;4.72;;
62419;SDS011;48460;51.616;5.426;2023-05-17T01:48:39;16.00;;;4.70;;
62419;SDS011;48460;51.616;5.426;2023-05-17T01:51:21;18.42;;;5.05;;
62419;SDS011;48460;51.616;5.426;2023-05-17T01:54:04;13.82;;;4.68;;
62419;SDS011;48460;51.616;5.426;2023-05-17T01:56:40;18.63;;;5.10;;
62419;SDS011;48460;51.616;5.426;2023-05-17T01:59:10;14.60;;;4.60;;
62419;SDS011;48460;51.616;5.426;2023-05-17T02:01:45;14.43;;;4.88;;
62419;SDS011;48460;51.616;5.426;2023-05-17T02:04:31;20.00;;;5.38;;
62419;SDS011;48460;51.616;5.426;2023-05-17T02:07:10;12.98;;;4.75;;
62419;SDS011;48460;51.616;5.426;2023-05-17T02:09:45;18.10;;;5.43;;
62419;SDS011;48460;51.616;5.426;2023-05-17T02:12:15;15.63;;;5.00;;
62419;SDS011;48460;51.616;5.426;2023-05-17T02:14:43;24.67;;;5.25;;
62419;SDS011;48460;51.616;5.426;2023-05-17T02:17:11;13.48;;;5.47;;
62419;SDS011;48460;51.616;5.426;2023-05-17T02:19:37;16.27;;;5.35;;
62419;SDS011;48460;51.616;5.426;2023-05-17T02:22:08;18.20;;;5.30;;
62419;SDS011;48460;51.616;5.426;2023-05-17T02:24:39;21.38;;;5.72;;
62419;SDS011;48460;51.616;5.426;2023-05-17T02:27:24;24.55;;;5.93;;
62419;SDS011;48460;51.616;5.426;2023-05-17T02:30:23;13.45;;;5.20;;
62419;SDS011;48460;51.616;5.426;2023-05-17T02:33:12;20.35;;;5.70;;
62419;SDS011;48460;51.616;5.426;2023-05-17T02:35:48;18.83;;;5.88;;
62419;SDS011;48460;51.616;5.426;2023-05-17T02:38:31;14.48;;;5.63;;
62419;SDS011;48460;51.616;5.426;2023-05-17T02:41:04;19.05;;;5.57;;
62419;SDS011;48460;51.616;5.426;2023-05-17T02:43:37;16.05;;;5.85;;
62419;SDS011;48460;51.616;5.426;2023-05-17T02:46:06;20.27;;;5.95;;
62419;SDS011;48460;51.616;5.426;2023-05-17T02:48:41;22.27;;;6.60;;
62419;SDS011;48460;51.616;5.426;2023-05-17T02:51:12;23.40;;;6.50;;
62419;SDS011;48460;51.616;5.426;2023-05-17T02:53:43;21.02;;;6.40;;
62419;SDS011;48460;51.616;5.426;2023-05-17T02:56:21;21.17;;;6.95;;
62419;SDS011;48460;51.616;5.426;2023-05-17T02:58:47;19.85;;;7.18;;
62419;SDS011;48460;51.616;5.426;2023-05-17T03:01:33;20.38;;;6.85;;
62419;SDS011;48460;51.616;5.426;2023-05-17T03:04:01;21.85;;;7.05;;
62419;SDS011;48460;51.616;5.426;2023-05-17T03:06:34;28.40;;;6.90;;
62419;SDS011;48460;51.616;5.426;2023-05-17T03:09:33;16.92;;;6.30;;
62419;SDS011;48460;51.616;5.426;2023-05-17T03:12:12;20.85;;;6.97;;
62419;SDS011;48460;51.616;5.426;2023-05-17T03:17:36;20.40;;;6.70;;
62419;SDS011;48460;51.616;5.426;2023-05-17T03:20:02;18.77;;;7.15;;
62419;SDS011;48460;51.616;5.426;2023-05-17T03:22:31;24.45;;;6.78;;
62419;SDS011;48460;51.616;5.426;2023-05-17T03:25:25;17.73;;;6.80;;
62419;SDS011;48460;51.616;5.426;2023-05-17T03:27:58;19.10;;;6.38;;
62419;SDS011;48460;51.616;5.426;2023-05-17T03:30:41;15.73;;;5.88;;
62419;SDS011;48460;51.616;5.426;2023-05-17T03:33:30;21.15;;;6.25;;
62419;SDS011;48460;51.616;5.426;2023-05-17T03:36:24;24.98;;;6.40;;
62419;SDS011;48460;51.616;5.426;2023-05-17T03:39:02;20.88;;;6.50;;
62419;SDS011;48460;51.616;5.426;2023-05-17T03:41:53;21.80;;;6.07;;
62419;SDS011;48460;51.616;5.426;2023-05-17T03:44:29;17.58;;;5.72;;
62419;SDS011;48460;51.616;5.426;2023-05-17T03:47:32;18.65;;;6.38;;
62419;SDS011;48460;51.616;5.426;2023-05-17T03:52:37;16.60;;;5.80;;
62419;SDS011;48460;51.616;5.426;2023-05-17T03:55:22;17.40;;;5.88;;
62419;SDS011;48460;51.616;5.426;2023-05-17T03:58:07;22.25;;;6.30;;
62419;SDS011;48460;51.616;5.426;2023-05-17T04:00:35;17.27;;;6.10;;
62419;SDS011;48460;51.616;5.426;2023-05-17T04:03:28;22.23;;;6.03;;
62419;SDS011;48460;51.616;5.426;2023-05-17T04:06:17;25.38;;;6.38;;
62419;SDS011;48460;51.616;5.426;2023-05-17T04:11:26;19.08;;;6.40;;
62419;SDS011;48460;51.616;5.426;2023-05-17T04:13:59;19.55;;;6.28;;
62419;SDS011;48460;51.616;5.426;2023-05-17T04:16:53;22.50;;;5.93;;
62419;SDS011;48460;51.616;5.426;2023-05-17T04:19:32;24.85;;;6.95;;
62419;SDS011;48460;51.616;5.426;2023-05-17T04:25:00;21.90;;;6.40;;
62419;SDS011;48460;51.616;5.426;2023-05-17T04:28:06;21.35;;;6.20;;
62419;SDS011;48460;51.616;5.426;2023-05-17T04:30:51;20.98;;;5.68;;
62419;SDS011;48460;51.616;5.426;2023-05-17T04:33:33;23.95;;;6.03;;
62419;SDS011;48460;51.616;5.426;2023-05-17T04:36:06;16.08;;;6.00;;
62419;SDS011;48460;51.616;5.426;2023-05-17T04:38:39;22.40;;;6.10;;
62419;SDS011;48460;51.616;5.426;2023-05-17T04:43:45;16.52;;;5.65;;
62419;SDS011;48460;51.616;5.426;2023-05-17T04:46:42;19.67;;;5.70;;
62419;SDS011;48460;51.616;5.426;2023-05-17T04:55:20;20.50;;;5.85;;
62419;SDS011;48460;51.616;5.426;2023-05-17T04:57:48;24.35;;;6.93;;
62419;SDS011;48460;51.616;5.426;2023-05-17T05:00:17;21.45;;;6.32;;
62419;SDS011;48460;51.616;5.426;2023-05-17T05:02:48;17.85;;;6.30;;
62419;SDS011;48460;51.616;5.426;2023-05-17T05:05:16;21.42;;;7.35;;
62419;SDS011;48460;51.616;5.426;2023-05-17T05:07:44;25.85;;;6.53;;
62419;SDS011;48460;51.616;5.426;2023-05-17T05:10:10;23.23;;;6.82;;
62419;SDS011;48460;51.616;5.426;2023-05-17T05:12:48;19.05;;;6.18;;
62419;SDS011;48460;51.616;5.426;2023-05-17T05:15:34;28.20;;;6.72;;
62419;SDS011;48460;51.616;5.426;2023-05-17T05:18:05;27.13;;;6.72;;
62419;SDS011;48460;51.616;5.426;2023-05-17T05:20:32;28.10;;;6.82;;
62419;SDS011;48460;51.616;5.426;2023-05-17T05:22:59;25.10;;;6.35;;
62419;SDS011;48460;51.616;5.426;2023-05-17T05:25:32;24.63;;;6.82;;
62419;SDS011;48460;51.616;5.426;2023-05-17T05:28:38;17.08;;;5.65;;
62419;SDS011;48460;51.616;5.426;2023-05-17T05:31:09;24.23;;;6.82;;
62419;SDS011;48460;51.616;5.426;2023-05-17T05:33:38;23.42;;;6.57;;
62419;SDS011;48460;51.616;5.426;2023-05-17T05:36:09;29.05;;;6.55;;
62419;SDS011;48460;51.616;5.426;2023-05-17T05:38:34;26.27;;;6.13;;
62419;SDS011;48460;51.616;5.426;2023-05-17T05:41:01;24.63;;;6.30;;
62419;SDS011;48460;51.616;5.426;2023-05-17T05:43:29;24.17;;;6.53;;
62419;SDS011;48460;51.616;5.426;2023-05-17T05:46:27;22.17;;;6.00;;
62419;SDS011;48460;51.616;5.426;2023-05-17T05:48:58;23.45;;;6.07;;
62419;SDS011;48460;51.616;5.426;2023-05-17T05:51:26;25.92;;;7.13;;
62419;SDS011;48460;51.616;5.426;2023-05-17T05:53:53;22.60;;;5.82;;
62419;SDS011;48460;51.616;5.426;2023-05-17T05:56:19;24.55;;;5.82;;
62419;SDS011;48460;51.616;5.426;2023-05-17T05:58:56;24.67;;;5.95;;
62419;SDS011;48460;51.616;5.426;2023-05-17T06:01:27;17.25;;;5.53;;
62419;SDS011;48460;51.616;5.426;2023-05-17T06:03:56;20.77;;;5.03;;
62419;SDS011;48460;51.616;5.426;2023-05-17T06:06:24;20.90;;;5.20;;
62419;SDS011;48460;51.616;5.426;2023-05-17T06:08:54;16.55;;;3.80;;
62419;SDS011;48460;51.616;5.426;2023-05-17T06:11:20;17.33;;;4.35;;
62419;SDS011;48460;51.616;5.426;2023-05-17T06:13:49;23.38;;;4.50;;
62419;SDS011;48460;51.616;5.426;2023-05-17T06:16:14;18.25;;;4.47;;
62419;SDS011;48460;51.616;5.426;2023-05-17T06:18:45;21.17;;;3.92;;
62419;SDS011;48460;51.616;5.426;2023-05-17T06:21:11;23.05;;;3.92;;
62419;SDS011;48460;51.616;5.426;2023-05-17T06:23:39;18.90;;;3.35;;
62419;SDS011;48460;51.616;5.426;2023-05-17T06:26:05;21.48;;;3.80;;
62419;SDS011;48460;51.616;5.426;2023-05-17T06:28:34;20.65;;;3.60;;
62419;SDS011;48460;51.616;5.426;2023-05-17T06:31:02;21.25;;;3.38;;
62419;SDS011;48460;51.616;5.426;2023-05-17T06:33:28;16.83;;;2.92;;
62419;SDS011;48460;51.616;5.426;2023-05-17T06:35:56;16.88;;;3.60;;
62419;SDS011;48460;51.616;5.426;2023-05-17T06:38:24;16.27;;;3.33;;
62419;SDS011;48460;51.616;5.426;2023-05-17T06:40:50;17.90;;;3.40;;
62419;SDS011;48460;51.616;5.426;2023-05-17T06:43:19;15.98;;;3.30;;
62419;SDS011;48460;51.616;5.426;2023-05-17T06:46:00;14.15;;;3.15;;
62419;SDS011;48460;51.616;5.426;2023-05-17T06:48:36;12.10;;;2.97;;
62419;SDS011;48460;51.616;5.426;2023-05-17T06:51:07;18.20;;;3.45;;
62419;SDS011;48460;51.616;5.426;2023-05-17T06:53:33;12.70;;;2.85;;
62419;SDS011;48460;51.616;5.426;2023-05-17T06:56:01;15.63;;;3.28;;
62419;SDS011;48460;51.616;5.426;2023-05-17T06:58:28;19.65;;;3.25;;
62419;SDS011;48460;51.616;5.426;2023-05-17T07:00:59;17.83;;;3.08;;
62419;SDS011;48460;51.616;5.426;2023-05-17T07:03:29;26.10;;;3.95;;
62419;SDS011;48460;51.616;5.426;2023-05-17T07:05:55;21.55;;;3.63;;
62419;SDS011;48460;51.616;5.426;2023-05-17T07:08:23;19.02;;;3.13;;
62419;SDS011;48460;51.616;5.426;2023-05-17T07:10:50;24.80;;;3.58;;
62419;SDS011;48460;51.616;5.426;2023-05-17T07:13:16;19.30;;;3.55;;
62419;SDS011;48460;51.616;5.426;2023-05-17T07:15:43;16.05;;;2.95;;
62419;SDS011;48460;51.616;5.426;2023-05-17T07:18:09;16.55;;;3.30;;
62419;SDS011;48460;51.616;5.426;2023-05-17T07:20:34;13.10;;;3.10;;
62419;SDS011;48460;51.616;5.426;2023-05-17T07:23:02;18.55;;;3.72;;
62419;SDS011;48460;51.616;5.426;2023-05-17T07:25:33;17.67;;;4.07;;
62419;SDS011;48460;51.616;5.426;2023-05-17T07:28:02;22.67;;;3.33;;
62419;SDS011;48460;51.616;5.426;2023-05-17T07:30:36;23.13;;;3.65;;
62419;SDS011;48460;51.616;5.426;2023-05-17T07:33:05;17.95;;;3.45;;
62419;SDS011;48460;51.616;5.426;2023-05-17T07:35:39;19.63;;;3.08;;
62419;SDS011;48460;51.616;5.426;2023-05-17T07:38:05;14.95;;;3.13;;
62419;SDS011;48460;51.616;5.426;2023-05-17T07:40:30;15.30;;;2.70;;
62419;SDS011;48460;51.616;5.426;2023-05-17T07:42:58;15.82;;;3.05;;
62419;SDS011;48460;51.616;5.426;2023-05-17T07:45:24;13.27;;;2.97;;
62419;SDS011;48460;51.616;5.426;2023-05-17T07:47:58;18.50;;;3.15;;
62419;SDS011;48460;51.616;5.426;2023-05-17T07:50:32;19.80;;;3.20;;
62419;SDS011;48460;51.616;5.426;2023-05-17T07:53:01;14.95;;;3.10;;
62419;SDS011;48460;51.616;5.426;2023-05-17T07:57:59;14.75;;;3.40;;
62419;SDS011;48460;51.616;5.426;2023-05-17T08:00:25;10.88;;;2.80;;
62419;SDS011;48460;51.616;5.426;2023-05-17T08:02:52;14.55;;;3.00;;
62419;SDS011;48460;51.616;5.426;2023-05-17T08:05:17;12.68;;;3.00;;
62419;SDS011;48460;51.616;5.426;2023-05-17T08:07:43;13.00;;;3.08;;
62419;SDS011;48460;51.616;5.426;2023-05-17T08:10:09;13.70;;;3.03;;
62419;SDS011;48460;51.616;5.426;2023-05-17T08:12:37;10.50;;;2.65;;
62419;SDS011;48460;51.616;5.426;2023-05-17T08:15:10;15.10;;;3.00;;
62419;SDS011;48460;51.616;5.426;2023-05-17T08:17:36;13.18;;;2.90;;
62419;SDS011;48460;51.616;5.426;2023-05-17T08:20:04;11.10;;;2.90;;
62419;SDS011;48460;51.616;5.426;2023-05-17T08:22:37;11.65;;;2.70;;
62419;SDS011;48460;51.616;5.426;2023-05-17T08:25:13;13.25;;;2.75;;
62419;SDS011;48460;51.616;5.426;2023-05-17T08:27:41;14.30;;;2.60;;
62419;SDS011;48460;51.616;5.426;2023-05-17T08:30:06;10.77;;;2.60;;
62419;SDS011;48460;51.616;5.426;2023-05-17T08:32:32;9.38;;;2.72;;
62419;SDS011;48460;51.616;5.426;2023-05-17T08:35:02;9.98;;;2.90;;
62419;SDS011;48460;51.616;5.426;2023-05-17T08:37:28;12.15;;;2.92;;
62419;SDS011;48460;51.616;5.426;2023-05-17T08:39:54;13.25;;;2.90;;
62419;SDS011;48460;51.616;5.426;2023-05-17T08:42:23;9.65;;;2.65;;
62419;SDS011;48460;51.616;5.426;2023-05-17T08:44:51;12.90;;;2.50;;
62419;SDS011;48460;51.616;5.426;2023-05-17T08:47:20;11.45;;;2.70;;
62419;SDS011;48460;51.616;5.426;2023-05-17T08:49:57;11.25;;;2.50;;
62419;SDS011;48460;51.616;5.426;2023-05-17T08:52:29;13.77;;;3.00;;
62419;SDS011;48460;51.616;5.426;2023-05-17T08:54:59;9.70;;;2.70;;
62419;SDS011;48460;51.616;5.426;2023-05-17T08:57:32;11.82;;;2.50;;
62419;SDS011;48460;51.616;5.426;2023-05-17T09:00:11;9.52;;;2.78;;
62419;SDS011;48460;51.616;5.426;2023-05-17T09:02:43;17.35;;;3.13;;
62419;SDS011;48460;51.616;5.426;2023-05-17T09:05:08;13.65;;;3.10;;
62419;SDS011;48460;51.616;5.426;2023-05-17T09:07:37;13.85;;;3.15;;
62419;SDS011;48460;51.616;5.426;2023-05-17T09:10:03;11.15;;;2.60;;
62419;SDS011;48460;51.616;5.426;2023-05-17T09:12:32;9.80;;;2.40;;
62419;SDS011;48460;51.616;5.426;2023-05-17T09:17:43;9.98;;;2.85;;
62419;SDS011;48460;51.616;5.426;2023-05-17T09:20:21;13.85;;;2.97;;
62419;SDS011;48460;51.616;5.426;2023-05-17T09:22:48;13.43;;;2.83;;
62419;SDS011;48460;51.616;5.426;2023-05-17T09:25:20;14.63;;;2.95;;
62419;SDS011;48460;51.616;5.426;2023-05-17T09:27:50;11.63;;;2.80;;
62419;SDS011;48460;51.616;5.426;2023-05-17T09:30:17;12.95;;;2.80;;
62419;SDS011;48460;51.616;5.426;2023-05-17T09:32:43;11.57;;;2.83;;
62419;SDS011;48460;51.616;5.426;2023-05-17T09:35:18;10.02;;;2.90;;
62419;SDS011;48460;51.616;5.426;2023-05-17T09:37:46;13.05;;;3.08;;
62419;SDS011;48460;51.616;5.426;2023-05-17T09:40:24;11.02;;;2.65;;
62419;SDS011;48460;51.616;5.426;2023-05-17T09:42:50;14.55;;;2.65;;
62419;SDS011;48460;51.616;5.426;2023-05-17T09:45:21;12.63;;;2.60;;
62419;SDS011;48460;51.616;5.426;2023-05-17T09:47:52;13.18;;;2.63;;
62419;SDS011;48460;51.616;5.426;2023-05-17T09:50:25;11.52;;;3.08;;
62419;SDS011;48460;51.616;5.426;2023-05-17T09:52:56;12.70;;;3.07;;
62419;SDS011;48460;51.616;5.426;2023-05-17T09:55:27;11.77;;;2.70;;
62419;SDS011;48460;51.616;5.426;2023-05-17T09:58:01;9.98;;;2.40;;
62419;SDS011;48460;51.616;5.426;2023-05-17T10:00:32;10.60;;;2.35;;
62419;SDS011;48460;51.616;5.426;2023-05-17T10:03:02;21.85;;;2.85;;
62419;SDS011;48460;51.616;5.426;2023-05-17T10:05:29;16.60;;;3.30;;
62419;SDS011;48460;51.616;5.426;2023-05-17T10:07:58;12.07;;;2.50;;
62419;SDS011;48460;51.616;5.426;2023-05-17T10:10:26;7.60;;;2.55;;
62419;SDS011;48460;51.616;5.426;2023-05-17T10:13:06;13.07;;;3.13;;
62419;SDS011;48460;51.616;5.426;2023-05-17T10:15:35;13.82;;;3.08;;
62419;SDS011;48460;51.616;5.426;2023-05-17T10:18:03;7.03;;;2.20;;
62419;SDS011;48460;51.616;5.426;2023-05-17T10:20:31;13.52;;;3.30;;
62419;SDS011;48460;51.616;5.426;2023-05-17T10:22:57;12.23;;;2.60;;
62419;SDS011;48460;51.616;5.426;2023-05-17T10:25:27;9.20;;;2.70;;
62419;SDS011;48460;51.616;5.426;2023-05-17T10:27:53;9.50;;;2.65;;
62419;SDS011;48460;51.616;5.426;2023-05-17T10:30:19;11.10;;;2.78;;
62419;SDS011;48460;51.616;5.426;2023-05-17T10:32:47;8.20;;;2.55;;
62419;SDS011;48460;51.616;5.426;2023-05-17T10:35:14;14.25;;;2.50;;
62419;SDS011;48460;51.616;5.426;2023-05-17T10:37:41;8.57;;;2.63;;
62419;SDS011;48460;51.616;5.426;2023-05-17T10:40:07;10.15;;;2.50;;
62419;SDS011;48460;51.616;5.426;2023-05-17T10:42:41;10.77;;;2.65;;
62419;SDS011;48460;51.616;5.426;2023-05-17T10:45:17;8.35;;;2.28;;
62419;SDS011;48460;51.616;5.426;2023-05-17T10:47:45;10.43;;;2.60;;
62419;SDS011;48460;51.616;5.426;2023-05-17T10:50:12;12.88;;;2.50;;
62419;SDS011;48460;51.616;5.426;2023-05-17T10:52:44;7.13;;;2.40;;
62419;SDS011;48460;51.616;5.426;2023-05-17T10:55:12;11.77;;;2.20;;
62419;SDS011;48460;51.616;5.426;2023-05-17T10:57:37;8.15;;;2.60;;
62419;SDS011;48460;51.616;5.426;2023-05-17T11:00:04;8.13;;;2.38;;
62419;SDS011;48460;51.616;5.426;2023-05-17T11:02:31;11.65;;;2.58;;
62419;SDS011;48460;51.616;5.426;2023-05-17T11:04:56;7.05;;;2.40;;
62419;SDS011;48460;51.616;5.426;2023-05-17T11:07:33;8.52;;;2.30;;
62419;SDS011;48460;51.616;5.426;2023-05-17T11:10:10;10.23;;;2.38;;
62419;SDS011;48460;51.616;5.426;2023-05-17T11:12:38;8.00;;;2.38;;
62419;SDS011;48460;51.616;5.426;2023-05-17T11:15:07;7.47;;;2.20;;
62419;SDS011;48460;51.616;5.426;2023-05-17T11:22:56;12.95;;;2.60;;
62419;SDS011;48460;51.616;5.426;2023-05-17T11:25:26;8.88;;;2.47;;
62419;SDS011;48460;51.616;5.426;2023-05-17T11:27:56;11.35;;;2.30;;
62419;SDS011;48460;51.616;5.426;2023-05-17T11:30:25;8.68;;;2.60;;
62419;SDS011;48460;51.616;5.426;2023-05-17T11:32:56;10.82;;;2.63;;
62419;SDS011;48460;51.616;5.426;2023-05-17T11:35:27;10.73;;;2.47;;
62419;SDS011;48460;51.616;5.426;2023-05-17T11:40:48;11.90;;;2.30;;
62419;SDS011;48460;51.616;5.426;2023-05-17T11:43:21;7.68;;;2.50;;
62419;SDS011;48460;51.616;5.426;2023-05-17T11:45:48;7.97;;;2.28;;
62419;SDS011;48460;51.616;5.426;2023-05-17T11:48:15;6.55;;;2.10;;
62419;SDS011;48460;51.616;5.426;2023-05-17T11:50:43;7.55;;;2.10;;
62419;SDS011;48460;51.616;5.426;2023-05-17T11:53:09;11.50;;;2.30;;
62419;SDS011;48460;51.616;5.426;2023-05-17T11:55:37;10.63;;;2.60;;
62419;SDS011;48460;51.616;5.426;2023-05-17T11:58:16;9.93;;;2.67;;
62419;SDS011;48460;51.616;5.426;2023-05-17T12:00:50;9.63;;;2.72;;
62419;SDS011;48460;51.616;5.426;2023-05-17T12:05:47;12.13;;;2.70;;
62419;SDS011;48460;51.616;5.426;2023-05-17T12:08:18;11.18;;;2.55;;
62419;SDS011;48460;51.616;5.426;2023-05-17T12:10:48;12.60;;;2.75;;
62419;SDS011;48460;51.616;5.426;2023-05-17T12:13:15;10.63;;;2.60;;
62419;SDS011;48460;51.616;5.426;2023-05-17T12:15:44;11.07;;;2.75;;
62419;SDS011;48460;51.616;5.426;2023-05-17T12:18:15;9.55;;;2.30;;
62419;SDS011;48460;51.616;5.426;2023-05-17T12:20:54;9.15;;;2.65;;
62419;SDS011;48460;51.616;5.426;2023-05-17T12:23:30;8.77;;;2.30;;
62419;SDS011;48460;51.616;5.426;2023-05-17T12:26:05;6.25;;;2.70;;
62419;SDS011;48460;51.616;5.426;2023-05-17T12:28:31;8.75;;;2.38;;
62419;SDS011;48460;51.616;5.426;2023-05-17T12:30:57;11.20;;;2.50;;
62419;SDS011;48460;51.616;5.426;2023-05-17T12:33:28;10.13;;;2.53;;
62419;SDS011;48460;51.616;5.426;2023-05-17T12:35:55;9.82;;;2.45;;
62419;SDS011;48460;51.616;5.426;2023-05-17T12:38:21;8.63;;;2.30;;
62419;SDS011;48460;51.616;5.426;2023-05-17T12:41:04;5.85;;;2.13;;
62419;SDS011;48460;51.616;5.426;2023-05-17T12:43:35;10.23;;;2.28;;
62419;SDS011;48460;51.616;5.426;2023-05-17T12:46:06;7.50;;;2.30;;
62419;SDS011;48460;51.616;5.426;2023-05-17T12:49:04;10.68;;;2.65;;
62419;SDS011;48460;51.616;5.426;2023-05-17T12:51:38;8.20;;;2.55;;
62419;SDS011;48460;51.616;5.426;2023-05-17T12:54:11;10.45;;;2.70;;
62419;SDS011;48460;51.616;5.426;2023-05-17T12:56:55;5.88;;;2.33;;
62419;SDS011;48460;51.616;5.426;2023-05-17T12:59:21;7.57;;;2.40;;
62419;SDS011;48460;51.616;5.426;2023-05-17T13:01:55;9.45;;;2.55;;
62419;SDS011;48460;51.616;5.426;2023-05-17T13:04:31;5.95;;;2.20;;
62419;SDS011;48460;51.616;5.426;2023-05-17T13:06:58;8.90;;;2.60;;
62419;SDS011;48460;51.616;5.426;2023-05-17T13:09:26;11.65;;;2.45;;
62419;SDS011;48460;51.616;5.426;2023-05-17T13:12:00;11.30;;;2.65;;
62419;SDS011;48460;51.616;5.426;2023-05-17T13:14:36;10.32;;;4.03;;
62419;SDS011;48460;51.616;5.426;2023-05-17T13:17:10;9.57;;;2.63;;
62419;SDS011;48460;51.616;5.426;2023-05-17T13:19:39;10.30;;;2.33;;
62419;SDS011;48460;51.616;5.426;2023-05-17T13:22:05;9.45;;;2.30;;
62419;SDS011;48460;51.616;5.426;2023-05-17T13:24:35;10.88;;;2.50;;
62419;SDS011;48460;51.616;5.426;2023-05-17T13:27:02;12.98;;;2.45;;
62419;SDS011;48460;51.616;5.426;2023-05-17T13:29:28;8.85;;;2.70;;
62419;SDS011;48460;51.616;5.426;2023-05-17T13:31:56;8.93;;;2.60;;
62419;SDS011;48460;51.616;5.426;2023-05-17T13:34:21;9.45;;;2.90;;
62419;SDS011;48460;51.616;5.426;2023-05-17T13:36:47;9.77;;;2.60;;
62419;SDS011;48460;51.616;5.426;2023-05-17T13:39:14;11.13;;;2.50;;
62419;SDS011;48460;51.616;5.426;2023-05-17T13:41:40;11.82;;;2.78;;
62419;SDS011;48460;51.616;5.426;2023-05-17T13:44:09;12.43;;;2.78;;
62419;SDS011;48460;51.616;5.426;2023-05-17T13:46:34;10.23;;;2.80;;
62419;SDS011;48460;51.616;5.426;2023-05-17T13:49:00;8.02;;;2.47;;
62419;SDS011;48460;51.616;5.426;2023-05-17T13:51:31;10.88;;;2.90;;
62419;SDS011;48460;51.616;5.426;2023-05-17T13:54:04;9.57;;;2.60;;
62419;SDS011;48460;51.616;5.426;2023-05-17T13:56:30;8.70;;;2.75;;
62419;SDS011;48460;51.616;5.426;2023-05-17T13:58:55;13.32;;;2.78;;
62419;SDS011;48460;51.616;5.426;2023-05-17T14:01:21;10.60;;;2.45;;
62419;SDS011;48460;51.616;5.426;2023-05-17T14:03:46;7.47;;;2.28;;
62419;SDS011;48460;51.616;5.426;2023-05-17T14:06:12;7.43;;;2.40;;
62419;SDS011;48460;51.616;5.426;2023-05-17T14:08:37;7.97;;;2.60;;
62419;SDS011;48460;51.616;5.426;2023-05-17T14:11:03;9.48;;;2.58;;
62419;SDS011;48460;51.616;5.426;2023-05-17T14:13:29;8.63;;;2.35;;
62419;SDS011;48460;51.616;5.426;2023-05-17T14:15:55;12.43;;;2.80;;
62419;SDS011;48460;51.616;5.426;2023-05-17T14:18:25;12.40;;;3.08;;
62419;SDS011;48460;51.616;5.426;2023-05-17T14:20:50;10.77;;;2.95;;
62419;SDS011;48460;51.616;5.426;2023-05-17T14:23:17;9.88;;;2.70;;
62419;SDS011;48460;51.616;5.426;2023-05-17T14:25:46;7.45;;;2.50;;
62419;SDS011;48460;51.616;5.426;2023-05-17T14:28:15;11.10;;;2.67;;
62419;SDS011;48460;51.616;5.426;2023-05-17T14:30:42;9.73;;;2.70;;
62419;SDS011;48460;51.616;5.426;2023-05-17T14:33:08;7.88;;;2.65;;
62419;SDS011;48460;51.616;5.426;2023-05-17T14:35:35;12.95;;;3.13;;
62419;SDS011;48460;51.616;5.426;2023-05-17T14:38:01;9.38;;;2.90;;
62419;SDS011;48460;51.616;5.426;2023-05-17T14:40:32;10.07;;;2.67;;
62419;SDS011;48460;51.616;5.426;2023-05-17T14:42:58;10.63;;;2.80;;
62419;SDS011;48460;51.616;5.426;2023-05-17T14:45:23;11.95;;;3.08;;
62419;SDS011;48460;51.616;5.426;2023-05-17T14:47:49;10.43;;;2.80;;
62419;SDS011;48460;51.616;5.426;2023-05-17T14:50:19;13.70;;;3.20;;
62419;SDS011;48460;51.616;5.426;2023-05-17T14:52:44;9.25;;;2.40;;
62419;SDS011;48460;51.616;5.426;2023-05-17T14:55:10;9.52;;;2.60;;
62419;SDS011;48460;51.616;5.426;2023-05-17T14:57:36;11.00;;;2.47;;
62419;SDS011;48460;51.616;5.426;2023-05-17T15:00:04;10.73;;;2.47;;
62419;SDS011;48460;51.616;5.426;2023-05-17T15:02:34;9.83;;;2.70;;
62419;SDS011;48460;51.616;5.426;2023-05-17T15:05:00;8.90;;;2.60;;
62419;SDS011;48460;51.616;5.426;2023-05-17T15:07:27;10.50;;;2.47;;
62419;SDS011;48460;51.616;5.426;2023-05-17T15:09:53;9.55;;;2.38;;
62419;SDS011;48460;51.616;5.426;2023-05-17T15:12:18;10.15;;;2.80;;
62419;SDS011;48460;51.616;5.426;2023-05-17T15:14:47;10.27;;;2.60;;
62419;SDS011;48460;51.616;5.426;2023-05-17T15:17:13;10.85;;;2.78;;
62419;SDS011;48460;51.616;5.426;2023-05-17T15:19:39;9.68;;;2.90;;
62419;SDS011;48460;51.616;5.426;2023-05-17T15:22:05;9.23;;;2.50;;
62419;SDS011;48460;51.616;5.426;2023-05-17T15:24:31;11.40;;;2.92;;
62419;SDS011;48460;51.616;5.426;2023-05-17T15:26:57;10.05;;;2.55;;
62419;SDS011;48460;51.616;5.426;2023-05-17T15:29:23;16.45;;;2.92;;
62419;SDS011;48460;51.616;5.426;2023-05-17T15:31:56;7.22;;;2.42;;
62419;SDS011;48460;51.616;5.426;2023-05-17T15:34:23;10.20;;;2.60;;
62419;SDS011;48460;51.616;5.426;2023-05-17T15:36:50;7.30;;;2.60;;
62419;SDS011;48460;51.616;5.426;2023-05-17T15:39:19;10.85;;;2.30;;
62419;SDS011;48460;51.616;5.426;2023-05-17T15:41:45;9.80;;;2.65;;
62419;SDS011;48460;51.616;5.426;2023-05-17T15:44:11;9.55;;;2.40;;